Time;durP1;ratioP1;P1;durP2;ratioP2;P2;SDS_P1;SDS_P2;PMS_P1;PMS_P2;Temp;Humidity;BMP_temperature;BMP_pressure;BME280_temperature;BME280_humidity;BME280_pressure;Samples;Min_cycle;Max_cycle;Signal;HPM_P1;HPM_P2
2021/06/30 00:02:19;;;;;;;0.10;0.10;;;17.50;1.00;;;;;;5117795;28;20045;-76
2021/06/30 00:04:45;;;;;;;0.10;0.10;;;17.40;1.00;;;;;;5117354;28;20119;-76
2021/06/30 00:07:11;;;;;;;0.20;0.20;;;17.40;1.00;;;;;;5117451;28;20482;-76
2021/06/30 00:09:38;;;;;;;0.20;0.20;;;17.30;1.00;;;;;;5117437;28;20046;-76
2021/06/30 00:12:04;;;;;;;5.05;1.20;;;17.30;1.00;;;;;;5117464;28;20494;-76
2021/06/30 00:14:30;;;;;;;0.10;0.10;;;17.20;1.00;;;;;;5117219;28;20422;-77
2021/06/30 00:16:56;;;;;;;0.20;0.20;;;17.20;1.00;;;;;;5117546;28;20039;-76
2021/06/30 00:19:23;;;;;;;0.10;0.10;;;17.20;1.00;;;;;;5117165;28;20039;-76
2021/06/30 00:21:49;;;;;;;0.20;0.20;;;17.20;1.00;;;;;;5117146;28;20043;-75
2021/06/30 00:24:15;;;;;;;0.30;0.22;;;17.30;1.00;;;;;;5117562;28;20040;-76
2021/06/30 00:26:41;;;;;;;0.10;0.10;;;17.20;1.00;;;;;;5117100;28;20039;-76
2021/06/30 00:29:08;;;;;;;0.30;0.30;;;17.20;1.00;;;;;;5098313;28;20039;-76
2021/06/30 00:31:34;;;;;;;0.10;0.10;;;17.20;1.00;;;;;;5116966;28;20042;-76
2021/06/30 00:34:03;;;;;;;0.10;0.10;;;17.10;1.00;;;;;;5117608;28;20042;-76
2021/06/30 00:36:43;;;;;;;1.65;0.20;;;17.00;1.00;;;;;;5099083;28;20379;-76
2021/06/30 00:39:11;;;;;;;0.20;0.20;;;16.90;1.00;;;;;;5116756;28;20031;-76
2021/06/30 00:41:37;;;;;;;0.10;0.10;;;16.80;1.00;;;;;;5117062;28;20126;-76
2021/06/30 00:44:04;;;;;;;0.20;0.20;;;16.90;1.00;;;;;;5117577;28;20463;-76
2021/06/30 00:46:32;;;;;;;0.10;0.10;;;16.90;1.00;;;;;;5116698;28;20042;-76
2021/06/30 00:48:58;;;;;;;0.20;0.20;;;17.00;1.00;;;;;;5116902;28;20039;-76
2021/06/30 00:51:26;;;;;;;0.10;0.10;;;17.00;1.00;;;;;;5117034;28;20039;-75
2021/06/30 00:53:53;;;;;;;0.30;0.30;;;17.00;1.00;;;;;;5116521;28;20040;-76
2021/06/30 00:56:24;;;;;;;0.20;0.20;;;17.00;1.00;;;;;;5116753;28;20036;-75
2021/06/30 00:58:52;;;;;;;0.10;0.10;;;17.00;1.00;;;;;;5117092;28;20040;-75
2021/06/30 01:01:19;;;;;;;0.10;0.10;;;16.90;1.00;;;;;;5116376;28;20051;-76
2021/06/30 01:03:44;;;;;;;0.20;0.20;;;16.80;1.00;;;;;;5116222;28;20074;-76
2021/06/30 01:06:11;;;;;;;0.10;0.10;;;16.70;1.00;;;;;;5116560;28;20035;-76
2021/06/30 01:08:37;;;;;;;0.20;0.20;;;16.70;1.00;;;;;;5116485;28;20118;-76
2021/06/30 01:11:03;;;;;;;0.30;0.30;;;16.70;1.00;;;;;;5116486;28;20539;-76
2021/06/30 01:13:28;;;;;;;0.20;0.20;;;16.70;1.00;;;;;;5116375;28;20035;-76
2021/06/30 01:15:57;;;;;;;0.10;0.10;;;16.70;1.00;;;;;;5116290;28;20184;-76
2021/06/30 01:18:25;;;;;;;0.10;0.10;;;16.80;1.00;;;;;;5116080;28;20466;-76
2021/06/30 01:20:52;;;;;;;0.20;0.20;;;16.70;1.00;;;;;;5098205;28;20035;-75
2021/06/30 01:23:19;;;;;;;0.22;0.22;;;16.80;1.00;;;;;;5116252;28;20035;-76
2021/06/30 01:25:46;;;;;;;0.22;0.22;;;16.80;1.00;;;;;;5116271;28;20123;-76
2021/06/30 01:28:13;;;;;;;0.10;0.10;;;16.90;1.00;;;;;;5116119;28;20088;-76
2021/06/30 01:30:40;;;;;;;0.20;0.20;;;16.80;1.00;;;;;;5116188;28;20039;-75
2021/06/30 01:33:07;;;;;;;0.10;0.10;;;16.70;1.00;;;;;;5116105;28;20502;-75
2021/06/30 01:35:34;;;;;;;0.28;0.28;;;16.70;1.00;;;;;;5115598;28;20045;-75
2021/06/30 01:38:01;;;;;;;0.20;0.20;;;16.60;1.00;;;;;;5115738;28;20063;-76
2021/06/30 01:40:27;;;;;;;0.10;0.10;;;16.70;1.00;;;;;;5115658;28;20069;-76
2021/06/30 01:42:55;;;;;;;0.10;0.10;;;16.60;1.00;;;;;;5115943;28;20053;-76
2021/06/30 01:45:22;;;;;;;0.13;0.13;;;16.60;1.00;;;;;;5115859;28;20122;-76
2021/06/30 01:47:48;;;;;;;0.10;0.10;;;16.60;1.00;;;;;;5116311;28;20035;-76
2021/06/30 01:50:15;;;;;;;0.25;0.25;;;16.60;1.00;;;;;;5115728;28;20036;-76
2021/06/30 01:52:42;;;;;;;0.10;0.10;;;16.60;1.00;;;;;;5115935;28;20074;-76
2021/06/30 01:55:09;;;;;;;0.10;0.10;;;16.50;1.00;;;;;;5115522;28;20055;-76
2021/06/30 01:57:47;;;;;;;0.10;0.10;;;16.40;1.00;;;;;;5115634;28;20036;-76
2021/06/30 02:00:15;;;;;;;0.20;0.20;;;16.30;1.00;;;;;;5115687;28;20054;-75
2021/06/30 02:02:42;;;;;;;0.30;0.30;;;16.30;1.00;;;;;;5115325;28;20044;-76
2021/06/30 02:05:13;;;;;;;0.10;0.10;;;16.30;1.00;;;;;;5114877;28;20070;-76
2021/06/30 02:07:42;;;;;;;0.20;0.20;;;16.30;1.00;;;;;;5115673;28;20047;-76
2021/06/30 02:10:12;;;;;;;0.20;0.20;;;16.40;1.00;;;;;;5114744;28;20510;-76
2021/06/30 02:12:38;;;;;;;0.20;0.20;;;16.40;1.00;;;;;;5114791;28;20065;-75
2021/06/30 02:15:24;;;;;;;0.10;0.10;;;16.40;1.00;;;;;;5115134;28;20054;-76
2021/06/30 02:17:50;;;;;;;0.20;0.20;;;16.40;1.00;;;;;;5115193;28;20040;-76
2021/06/30 02:20:17;;;;;;;0.10;0.10;;;16.30;1.00;;;;;;5114708;28;20039;-76
2021/06/30 02:22:44;;;;;;;0.10;0.10;;;16.30;1.00;;;;;;5114723;28;20399;-76
2021/06/30 02:25:13;;;;;;;0.40;0.40;;;16.30;1.00;;;;;;5115127;28;20042;-76
2021/06/30 02:27:39;;;;;;;0.10;0.10;;;16.20;1.00;;;;;;5114940;28;20039;-76
2021/06/30 02:30:14;;;;;;;0.20;0.20;;;16.10;1.00;;;;;;5114726;28;20063;-75
2021/06/30 02:32:40;;;;;;;0.10;0.10;;;16.10;1.00;;;;;;5114971;28;20081;-76
2021/06/30 02:35:09;;;;;;;0.10;0.10;;;16.00;1.00;;;;;;5114606;28;20097;-77
2021/06/30 02:37:35;;;;;;;0.30;0.30;;;15.90;1.00;;;;;;5114902;28;20031;-76
2021/06/30 02:40:02;;;;;;;0.10;0.10;;;16.00;1.00;;;;;;5114847;28;20043;-76
2021/06/30 02:42:27;;;;;;;0.10;0.10;;;15.90;1.00;;;;;;5114584;28;20035;-76
2021/06/30 02:44:53;;;;;;;0.20;0.20;;;15.80;1.00;;;;;;5115104;28;20040;-76
2021/06/30 02:47:19;;;;;;;0.10;0.10;;;15.80;1.00;;;;;;5096465;28;20062;-76
2021/06/30 02:49:45;;;;;;;0.10;0.10;;;15.70;1.00;;;;;;5114332;28;20036;-75
2021/06/30 02:52:11;;;;;;;0.10;0.10;;;15.70;1.00;;;;;;5115444;28;20045;-76
2021/06/30 02:54:37;;;;;;;0.10;0.10;;;15.70;1.00;;;;;;5118958;28;20048;-76
2021/06/30 02:57:03;;;;;;;0.10;0.10;;;15.70;1.00;;;;;;5118489;28;20092;-76
2021/06/30 02:59:29;;;;;;;0.10;0.10;;;15.70;1.00;;;;;;5118943;28;20063;-76
2021/06/30 03:01:55;;;;;;;0.10;0.10;;;15.60;1.00;;;;;;5119455;28;20112;-76
2021/06/30 03:04:20;;;;;;;0.40;0.40;;;15.60;1.00;;;;;;5118505;28;20074;-75
2021/06/30 03:06:46;;;;;;;0.10;0.10;;;15.60;1.00;;;;;;5118913;28;20058;-76
2021/06/30 03:09:12;;;;;;;0.50;0.50;;;15.60;1.00;;;;;;5118784;28;20035;-76
2021/06/30 03:11:39;;;;;;;0.20;0.20;;;15.50;1.00;;;;;;5118772;28;20048;-75
2021/06/30 03:14:05;;;;;;;0.10;0.10;;;15.50;1.00;;;;;;5118525;28;20050;-76
2021/06/30 03:16:31;;;;;;;0.20;0.20;;;15.50;1.00;;;;;;5118840;28;20067;-76
2021/06/30 03:18:58;;;;;;;0.10;0.10;;;15.50;1.00;;;;;;5118755;28;20040;-76
2021/06/30 03:21:23;;;;;;;0.20;0.20;;;15.50;1.00;;;;;;5118400;28;20031;-76
2021/06/30 03:23:49;;;;;;;0.17;0.17;;;15.50;1.00;;;;;;5118572;28;20040;-76
2021/06/30 03:26:15;;;;;;;0.20;0.20;;;15.40;1.00;;;;;;5118513;28;20080;-76
2021/06/30 03:28:41;;;;;;;0.10;0.10;;;15.40;1.00;;;;;;5118299;28;20119;-76
2021/06/30 03:31:07;;;;;;;0.10;0.10;;;15.40;1.00;;;;;;5118453;28;20039;-75
2021/06/30 03:33:32;;;;;;;0.10;0.10;;;15.40;1.00;;;;;;5118226;28;20496;-76
2021/06/30 03:35:58;;;;;;;0.10;0.10;;;15.40;1.00;;;;;;5118363;28;20051;-76
2021/06/30 03:38:24;;;;;;;0.10;0.10;;;15.40;1.00;;;;;;5118072;28;20383;-76
2021/06/30 03:40:50;;;;;;;0.10;0.10;;;15.40;1.00;;;;;;5118397;28;20085;-75
2021/06/30 03:43:16;;;;;;;0.10;0.10;;;15.40;1.00;;;;;;5118131;28;20043;-76
2021/06/30 03:45:41;;;;;;;0.10;0.10;;;15.30;1.00;;;;;;5118170;28;20051;-76
2021/06/30 03:48:07;;;;;;;0.20;0.20;;;15.40;1.00;;;;;;5118155;28;20420;-76
2021/06/30 03:50:33;;;;;;;0.10;0.10;;;15.30;1.00;;;;;;5116651;28;20077;-76
2021/06/30 03:52:59;;;;;;;0.30;0.30;;;15.30;1.00;;;;;;5116822;28;20039;-75
2021/06/30 03:55:25;;;;;;;0.10;0.10;;;15.30;1.00;;;;;;5117144;28;20046;-76
2021/06/30 03:57:51;;;;;;;0.15;0.15;;;15.30;1.00;;;;;;5117941;28;20038;-76
2021/06/30 04:00:18;;;;;;;0.13;0.13;;;15.30;1.00;;;;;;5117353;28;20047;-76
2021/06/30 04:02:43;;;;;;;0.10;0.10;;;15.30;1.00;;;;;;5117444;28;20044;-76
2021/06/30 04:05:09;;;;;;;0.20;0.20;;;15.30;1.00;;;;;;5115556;28;20038;-76
2021/06/30 04:07:35;;;;;;;0.10;0.10;;;15.30;1.00;;;;;;5116617;28;20034;-75
2021/06/30 04:10:04;;;;;;;0.10;0.10;;;15.30;1.00;;;;;;5116230;28;20040;-76
2021/06/30 04:12:29;;;;;;;0.17;0.17;;;15.20;1.00;;;;;;5116611;28;20405;-76
2021/06/30 04:14:55;;;;;;;0.20;0.20;;;15.20;1.00;;;;;;5116211;28;20047;-76
2021/06/30 04:17:21;;;;;;;0.40;0.40;;;15.30;1.00;;;;;;5127576;27;20062;-76
2021/06/30 04:19:47;;;;;;;0.28;0.28;;;15.30;1.00;;;;;;5137474;27;20035;-76
2021/06/30 04:22:13;;;;;;;0.20;0.20;;;15.30;1.00;;;;;;5137692;27;20050;-76
2021/06/30 04:24:38;;;;;;;0.28;0.28;;;15.30;1.00;;;;;;5137389;27;20397;-76
2021/06/30 04:27:04;;;;;;;0.10;0.10;;;15.30;1.00;;;;;;5137637;27;20035;-75
2021/06/30 04:29:30;;;;;;;0.13;0.13;;;15.20;1.00;;;;;;5137659;27;20038;-75
2021/06/30 04:31:56;;;;;;;0.10;0.10;;;15.20;1.00;;;;;;5137434;27;20156;-76
2021/06/30 04:34:22;;;;;;;0.10;0.10;;;15.30;1.00;;;;;;5137191;27;20064;-76
2021/06/30 04:36:47;;;;;;;0.38;0.38;;;15.30;1.00;;;;;;5136917;27;20091;-74
2021/06/30 04:39:15;;;;;;;0.10;0.10;;;15.30;1.00;;;;;;5136104;27;20046;-75
2021/06/30 04:41:41;;;;;;;0.30;0.30;;;15.30;1.00;;;;;;5136625;27;20046;-75
2021/06/30 04:44:07;;;;;;;0.10;0.10;;;15.30;1.00;;;;;;5136541;27;20039;-75
2021/06/30 04:46:34;;;;;;;0.45;0.45;;;15.30;1.00;;;;;;5137158;27;20027;-76
2021/06/30 04:49:00;;;;;;;0.10;0.10;;;15.30;1.00;;;;;;5136980;27;20070;-75
2021/06/30 04:51:26;;;;;;;0.28;0.28;;;15.40;1.00;;;;;;5136983;27;20062;-76
2021/06/30 04:53:52;;;;;;;0.30;0.30;;;15.40;1.00;;;;;;5136755;27;20046;-76
2021/06/30 04:56:26;;;;;;;0.20;0.20;;;15.30;1.00;;;;;;5136850;27;20100;-75
2021/06/30 04:58:54;;;;;;;0.20;0.20;;;15.40;1.00;;;;;;5137050;27;20038;-76
2021/06/30 05:01:20;;;;;;;0.10;0.10;;;15.40;1.00;;;;;;5136448;27;20043;-76
2021/06/30 05:03:47;;;;;;;0.10;0.10;;;15.40;1.00;;;;;;5136729;27;20039;-75
2021/06/30 05:06:13;;;;;;;0.30;0.30;;;15.50;1.00;;;;;;5136806;27;20126;-76
2021/06/30 05:08:39;;;;;;;0.32;0.32;;;15.60;1.00;;;;;;5136580;27;20035;-76
2021/06/30 05:11:05;;;;;;;0.20;0.20;;;15.60;1.00;;;;;;5136731;27;20099;-76
2021/06/30 05:13:31;;;;;;;0.10;0.10;;;15.70;1.00;;;;;;5136289;27;20043;-76
2021/06/30 05:15:57;;;;;;;0.10;0.10;;;15.80;1.00;;;;;;5136162;27;20057;-76
2021/06/30 05:18:22;;;;;;;0.10;0.10;;;15.90;1.00;;;;;;5136517;27;20486;-75
2021/06/30 05:20:48;;;;;;;0.13;0.13;;;16.40;1.00;;;;;;5136542;27;20383;-76
2021/06/30 05:23:16;;;;;;;0.10;0.10;;;16.80;1.00;;;;;;5136178;27;20043;-76
2021/06/30 05:25:42;;;;;;;0.13;0.13;;;17.10;1.00;;;;;;5136338;27;20117;-75
2021/06/30 05:28:08;;;;;;;0.10;0.10;;;17.30;1.00;;;;;;5136092;27;20112;-76
2021/06/30 05:30:33;;;;;;;0.28;0.28;;;17.60;1.00;;;;;;5136408;27;20039;-76
2021/06/30 05:32:59;;;;;;;0.30;0.30;;;17.80;1.00;;;;;;5135871;27;20073;-76
2021/06/30 05:35:25;;;;;;;0.10;0.10;;;18.30;1.00;;;;;;5135861;27;20508;-76
2021/06/30 05:37:51;;;;;;;0.32;0.32;;;18.50;1.00;;;;;;5135970;27;20065;-76
2021/06/30 05:40:17;;;;;;;0.10;0.10;;;18.70;1.00;;;;;;5136165;27;20031;-76
2021/06/30 05:42:43;;;;;;;0.20;0.20;;;18.90;1.00;;;;;;5135815;27;20046;-76
2021/06/30 05:45:15;;;;;;;0.20;0.20;;;19.80;1.00;;;;;;5136041;27;20074;-80
2021/06/30 05:47:44;;;;;;;0.20;0.20;;;21.10;1.00;;;;;;5135849;27;20031;-76
2021/06/30 05:50:12;;;;;;;0.13;0.13;;;21.00;1.00;;;;;;5136074;27;20042;-76
2021/06/30 05:52:38;;;;;;;0.20;0.20;;;21.20;1.00;;;;;;5136213;27;20039;-76
2021/06/30 05:55:06;;;;;;;0.30;0.30;;;23.60;1.00;;;;;;5135734;27;20066;-76
2021/06/30 05:57:33;;;;;;;0.20;0.20;;;24.30;1.00;;;;;;5135627;27;20042;-76
2021/06/30 05:59:58;;;;;;;0.10;0.10;;;24.80;1.00;;;;;;5117633;27;20043;-76
2021/06/30 06:02:24;;;;;;;0.75;0.75;;;23.30;1.00;;;;;;5136193;27;20431;-76
2021/06/30 06:04:51;;;;;;;0.28;0.28;;;23.20;1.00;;;;;;5135193;27;20055;-76
2021/06/30 06:07:17;;;;;;;0.20;0.20;;;25.20;1.00;;;;;;5135735;27;20084;-76
2021/06/30 06:09:43;;;;;;;0.30;0.30;;;26.30;1.00;;;;;;5136158;27;20093;-76
2021/06/30 06:12:09;;;;;;;0.30;0.30;;;27.00;1.00;;;;;;5135633;27;20039;-76
2021/06/30 06:14:35;;;;;;;0.20;0.20;;;27.30;1.00;;;;;;5135550;27;20046;-76
2021/06/30 06:17:00;;;;;;;0.20;0.20;;;28.80;1.00;;;;;;5117728;27;20035;-77
2021/06/30 06:19:26;;;;;;;0.20;0.20;;;29.50;1.00;;;;;;5135518;27;20502;-76
2021/06/30 06:21:52;;;;;;;0.20;0.20;;;29.00;1.00;;;;;;5135646;27;20039;-76
2021/06/30 06:24:18;;;;;;;0.20;0.20;;;28.90;1.00;;;;;;5135236;27;20147;-77
2021/06/30 06:26:53;;;;;;;0.20;0.20;;;27.70;1.00;;;;;;5134697;27;20059;-76
2021/06/30 06:29:19;;;;;;;0.28;0.28;;;25.00;1.00;;;;;;5135301;28;20035;-77
2021/06/30 06:31:48;;;;;;;0.30;0.30;;;24.90;1.00;;;;;;5135417;28;20070;-77
2021/06/30 06:34:20;;;;;;;0.20;0.20;;;25.00;1.00;;;;;;5135252;28;20031;-77
2021/06/30 06:36:50;;;;;;;0.20;0.20;;;25.10;1.00;;;;;;5136025;28;20046;-77
2021/06/30 06:39:20;;;;;;;0.30;0.30;;;24.50;1.00;;;;;;5135592;28;20045;-76
2021/06/30 06:41:47;;;;;;;0.20;0.20;;;24.60;1.00;;;;;;5134782;28;20074;-76
2021/06/30 06:44:14;;;;;;;0.43;0.43;;;27.40;1.00;;;;;;5135018;28;20490;-76
2021/06/30 06:46:40;;;;;;;0.20;0.20;;;26.50;1.00;;;;;;5135378;28;20070;-76
2021/06/30 06:49:07;;;;;;;0.20;0.20;;;28.90;1.00;;;;;;5135448;28;20126;-76
2021/06/30 06:51:35;;;;;;;0.20;0.20;;;30.50;1.00;;;;;;5134946;28;20046;-76
2021/06/30 06:54:00;;;;;;;0.20;0.20;;;32.20;1.00;;;;;;5135535;28;20038;-76
2021/06/30 06:56:27;;;;;;;0.20;0.20;;;32.30;1.00;;;;;;5135005;28;20050;-76
2021/06/30 06:58:54;;;;;;;0.30;0.30;;;31.60;1.00;;;;;;5135323;28;20431;-76
2021/06/30 07:01:24;;;;;;;0.30;0.30;;;32.00;1.00;;;;;;5134659;28;20104;-76
2021/06/30 07:03:50;;;;;;;0.30;0.30;;;32.00;1.00;;;;;;5124806;28;20042;-76
2021/06/30 07:06:17;;;;;;;0.20;0.20;;;31.80;1.00;;;;;;5112755;28;20899;-76
2021/06/30 07:08:47;;;;;;;0.20;0.20;;;31.80;1.00;;;;;;5112888;28;20043;-77
2021/06/30 07:11:12;;;;;;;0.22;0.22;;;32.20;1.00;;;;;;5112788;28;20039;-78
2021/06/30 07:13:39;;;;;;;0.20;0.20;;;29.60;1.00;;;;;;5094154;28;20528;-77
2021/06/30 07:16:06;;;;;;;0.20;0.20;;;29.70;1.00;;;;;;5109856;28;20177;-78
2021/06/30 07:18:33;;;;;;;0.17;0.17;;;28.80;1.00;;;;;;5112491;28;20071;-77
2021/06/30 07:21:01;;;;;;;0.30;0.30;;;28.00;1.00;;;;;;5112596;28;20122;-76
2021/06/30 07:23:30;;;;;;;0.20;0.20;;;27.10;1.00;;;;;;5109718;28;20113;-76
2021/06/30 07:25:56;;;;;;;0.20;0.20;;;27.30;1.00;;;;;;5112328;28;20043;-78
2021/06/30 07:28:23;;;;;;;0.28;0.28;;;28.80;1.00;;;;;;5112540;28;20517;-76
2021/06/30 07:30:49;;;;;;;0.20;0.20;;;28.20;1.00;;;;;;5112225;28;20042;-76
2021/06/30 07:33:15;;;;;;;0.20;0.20;;;26.80;1.00;;;;;;5112159;28;20575;-77
2021/06/30 07:35:41;;;;;;;0.55;0.47;;;28.20;1.00;;;;;;5111816;28;20130;-77
2021/06/30 07:38:07;;;;;;;0.20;0.20;;;30.30;1.00;;;;;;5112972;28;20047;-77
2021/06/30 07:40:34;;;;;;;0.20;0.20;;;31.00;1.00;;;;;;5116214;28;20583;-76
2021/06/30 07:43:01;;;;;;;0.20;0.20;;;31.40;1.00;;;;;;5097657;28;20052;-76
2021/06/30 07:45:28;;;;;;;0.20;0.20;;;32.00;1.00;;;;;;5114192;28;20043;-77
2021/06/30 07:47:54;;;;;;;0.30;0.30;;;31.30;1.00;;;;;;5110244;28;20039;-77
2021/06/30 07:50:20;;;;;;;0.20;0.20;;;30.90;1.00;;;;;;5097315;28;20035;-76
2021/06/30 07:52:48;;;;;;;0.15;0.15;;;28.90;1.00;;;;;;5096813;28;20055;-76
2021/06/30 07:55:15;;;;;;;0.20;0.20;;;25.90;1.00;;;;;;5097382;28;20038;-76
2021/06/30 07:57:42;;;;;;;0.10;0.10;;;25.00;1.00;;;;;;5096915;28;20036;-76
2021/06/30 08:00:09;;;;;;;0.20;0.20;;;23.90;1.00;;;;;;5096700;28;20056;-76
2021/06/30 08:02:38;;;;;;;0.25;0.25;;;24.20;1.00;;;;;;5096898;28;20181;-76
2021/06/30 08:05:08;;;;;;;0.15;0.15;;;24.10;1.00;;;;;;5096783;28;20051;-76
2021/06/30 08:07:35;;;;;;;;;;;23.30;1.00;;;;;;5097207;28;20040;-76
2021/06/30 08:10:05;;;;;;;1.45;0.35;;;22.60;1.00;;;;;;5096194;28;20381;-76
2021/06/30 08:12:31;;;;;;;;;;;22.30;1.00;;;;;;5096536;28;20510;-77
2021/06/30 08:14:57;;;;;;;0.20;0.20;;;21.80;1.00;;;;;;5095923;28;19918;-75
2021/06/30 08:17:23;;;;;;;0.20;0.20;;;21.50;1.00;;;;;;5095815;28;20449;-76
2021/06/30 08:19:49;;;;;;;0.10;0.10;;;21.50;1.00;;;;;;5096407;28;20046;-76
2021/06/30 08:22:14;;;;;;;0.17;0.17;;;21.30;1.00;;;;;;5096185;28;20394;-75
2021/06/30 08:24:43;;;;;;;0.20;0.20;;;21.20;1.00;;;;;;5096380;28;20039;-77
2021/06/30 08:27:10;;;;;;;0.10;0.10;;;20.90;1.00;;;;;;5096726;28;20028;-76
2021/06/30 08:29:37;;;;;;;0.10;0.10;;;20.50;1.00;;;;;;5096790;28;20105;-76
2021/06/30 08:32:04;;;;;;;0.13;0.13;;;20.50;1.00;;;;;;5075065;28;20061;-75
2021/06/30 08:34:30;;;;;;;0.28;0.28;;;20.50;1.00;;;;;;5116353;28;20486;-76
2021/06/30 08:37:02;;;;;;;0.32;0.32;;;20.20;1.00;;;;;;5116850;28;20036;-76
2021/06/30 08:39:29;;;;;;;0.20;0.20;;;20.00;1.00;;;;;;5098720;28;20062;-76
2021/06/30 08:41:55;;;;;;;0.10;0.10;;;19.60;1.00;;;;;;5116143;28;20059;-76
2021/06/30 08:44:21;;;;;;;0.20;0.20;;;19.80;1.00;;;;;;5115928;28;20040;-76
2021/06/30 08:46:48;;;;;;;0.20;0.20;;;20.00;1.00;;;;;;5098151;28;20501;-75
2021/06/30 08:49:18;;;;;;;0.15;0.15;;;19.90;1.00;;;;;;5116273;28;20050;-75
2021/06/30 08:51:54;;;;;;;0.10;0.10;;;19.90;1.00;;;;;;5116351;28;20031;-76
2021/06/30 08:54:21;;;;;;;0.10;0.10;;;19.90;1.00;;;;;;5116687;28;20135;-76
2021/06/30 08:56:59;;;;;;;0.10;0.10;;;20.00;1.00;;;;;;5097862;28;20070;-76
2021/06/30 08:59:26;;;;;;;0.20;0.20;;;19.70;1.00;;;;;;5116015;28;20044;-75
2021/06/30 09:01:52;;;;;;;0.20;0.20;;;19.70;1.00;;;;;;5116181;28;20108;-76
2021/06/30 09:04:18;;;;;;;0.10;0.10;;;20.00;1.00;;;;;;5097862;28;20420;-76
2021/06/30 09:06:44;;;;;;;0.10;0.10;;;19.90;1.00;;;;;;5116045;28;20043;-76
2021/06/30 09:09:13;;;;;;;0.20;0.20;;;20.20;1.00;;;;;;5116042;28;20040;-76
2021/06/30 09:11:40;;;;;;;0.10;0.10;;;20.20;1.00;;;;;;5116070;28;20031;-76
2021/06/30 09:14:25;;;;;;;0.20;0.20;;;20.20;1.00;;;;;;5116074;28;20032;-76
2021/06/30 09:19:54;;;;;;;0.10;0.10;;;19.90;1.00;;;;;;5115407;28;20034;-75
2021/06/30 09:22:22;;;;;;;0.32;0.32;;;19.80;1.00;;;;;;5097622;28;20088;-75
2021/06/30 09:24:51;;;;;;;0.20;0.20;;;20.00;1.00;;;;;;5115914;28;20031;-76
2021/06/30 09:27:18;;;;;;;0.28;0.28;;;19.90;1.00;;;;;;5115957;28;20050;-76
2021/06/30 09:29:44;;;;;;;0.30;0.30;;;20.00;1.00;;;;;;5116224;28;20035;-76
2021/06/30 09:32:16;;;;;;;0.20;0.20;;;20.00;1.00;;;;;;5115287;28;20108;-76
2021/06/30 09:34:42;;;;;;;0.20;0.20;;;19.90;1.00;;;;;;5097230;28;20028;-77
2021/06/30 09:37:10;;;;;;;0.10;0.10;;;20.00;1.00;;;;;;5115711;28;20027;-76
2021/06/30 09:39:51;;;;;;;0.45;0.45;;;19.90;1.00;;;;;;5097984;28;20478;-76
2021/06/30 09:42:17;;;;;;;0.43;0.43;;;19.90;1.00;;;;;;5115598;28;20046;-76
2021/06/30 09:44:44;;;;;;;0.10;0.10;;;19.90;1.00;;;;;;5115308;28;20103;-76
2021/06/30 09:47:10;;;;;;;0.20;0.20;;;20.00;1.00;;;;;;5115532;28;20038;-76
2021/06/30 09:49:38;;;;;;;0.17;0.17;;;19.90;1.00;;;;;;5097385;28;20437;-76
2021/06/30 09:52:17;;;;;;;0.10;0.10;;;19.70;1.00;;;;;;5097146;28;20052;-76
2021/06/30 09:54:45;;;;;;;0.10;0.10;;;19.80;1.00;;;;;;5097102;28;20122;-76
2021/06/30 09:57:14;;;;;;;0.10;0.10;;;19.90;1.00;;;;;;5115344;28;20167;-76
2021/06/30 09:59:45;;;;;;;0.15;0.15;;;19.90;1.00;;;;;;5115304;28;20088;-76
2021/06/30 10:02:12;;;;;;;;;;;19.90;1.00;;;;;;5097538;28;20372;-76
2021/06/30 10:04:44;;;;;;;0.10;0.10;;;19.90;1.00;;;;;;5114782;28;19961;-76
2021/06/30 10:07:15;;;;;;;0.20;0.20;;;20.10;1.00;;;;;;5115280;28;20551;-76
2021/06/30 10:09:53;;;;;;;0.10;0.10;;;20.10;1.00;;;;;;5115490;28;20066;-76
2021/06/30 10:12:24;;;;;;;0.10;0.10;;;20.00;1.00;;;;;;5096768;28;20512;-76
2021/06/30 10:14:52;;;;;;;0.20;0.20;;;20.00;1.00;;;;;;5115254;28;20123;-76
2021/06/30 10:17:19;;;;;;;0.10;0.10;;;19.90;1.00;;;;;;5115089;28;20040;-75
2021/06/30 10:19:47;;;;;;;0.20;0.20;;;19.90;1.00;;;;;;5114788;28;20406;-75
2021/06/30 10:22:13;;;;;;;0.10;0.10;;;20.10;1.00;;;;;;5114735;28;20042;-76
2021/06/30 10:24:40;;;;;;;0.90;0.30;;;20.10;1.00;;;;;;5114710;28;20040;-76
2021/06/30 10:27:09;;;;;;;0.10;0.10;;;20.20;1.00;;;;;;5096501;28;20394;-76
2021/06/30 10:29:41;;;;;;;0.35;0.35;;;20.10;1.00;;;;;;5115615;28;20044;-76
2021/06/30 10:32:09;;;;;;;0.20;0.20;;;20.10;1.00;;;;;;5096513;28;20448;-76
2021/06/30 10:34:43;;;;;;;0.10;0.10;;;20.00;1.00;;;;;;5114783;28;20035;-75
2021/06/30 10:37:25;;;;;;;0.20;0.20;;;20.10;1.00;;;;;;5115556;28;20031;-75
2021/06/30 10:39:54;;;;;;;0.10;0.10;;;20.10;1.00;;;;;;5114806;28;20046;-76
2021/06/30 10:42:37;;;;;;;0.20;0.20;;;20.10;1.00;;;;;;5112728;28;20036;-76
2021/06/30 10:45:17;;;;;;;0.35;0.35;;;20.10;1.00;;;;;;5114380;28;20046;-75
2021/06/30 10:48:02;;;;;;;0.50;0.50;;;20.20;1.00;;;;;;5112056;28;20097;-75
2021/06/30 10:50:54;;;;;;;0.10;0.10;;;20.20;1.00;;;;;;5095564;28;20058;-75
2021/06/30 10:53:26;;;;;;;0.10;0.10;;;20.30;1.00;;;;;;5085950;28;20043;-76
2021/06/30 10:56:03;;;;;;;0.10;0.10;;;20.30;1.00;;;;;;5093167;28;20071;-75
2021/06/30 10:58:30;;;;;;;0.22;0.22;;;20.30;1.00;;;;;;5114570;28;20035;-76
2021/06/30 11:01:04;;;;;;;0.10;0.10;;;20.50;1.00;;;;;;5096440;28;20051;-75
2021/06/30 11:03:48;;;;;;;0.32;0.32;;;20.50;1.00;;;;;;5112700;28;20491;-76
2021/06/30 11:06:23;;;;;;;0.20;0.20;;;20.40;1.00;;;;;;5093264;28;20035;-76
2021/06/30 11:09:06;;;;;;;0.10;0.10;;;20.50;1.00;;;;;;5092623;28;20067;-75
2021/06/30 11:11:50;;;;;;;0.10;0.10;;;20.60;1.00;;;;;;5104047;28;20039;-77
2021/06/30 11:14:19;;;;;;;0.20;0.20;;;20.70;1.00;;;;;;5078854;28;20044;-76
2021/06/30 11:16:59;;;;;;;0.10;0.10;;;20.60;1.00;;;;;;5079239;28;20039;-76
2021/06/30 11:19:28;;;;;;;0.10;0.10;;;20.80;1.00;;;;;;5081461;28;20093;-76
2021/06/30 11:21:59;;;;;;;0.10;0.10;;;20.80;1.00;;;;;;5098096;28;20039;-77
2021/06/30 11:24:49;;;;;;;0.20;0.20;;;20.90;1.00;;;;;;5098805;28;20042;-76
2021/06/30 11:27:17;;;;;;;0.10;0.10;;;20.90;1.00;;;;;;5099774;28;20036;-76
2021/06/30 11:29:53;;;;;;;0.10;0.10;;;21.00;1.00;;;;;;5118108;28;20164;-76
2021/06/30 11:34:58;;;;;;;0.30;0.30;;;21.10;1.00;;;;;;5117840;28;20032;-76
2021/06/30 11:37:26;;;;;;;0.10;0.10;;;21.10;1.00;;;;;;5117793;28;20035;-77
2021/06/30 11:40:01;;;;;;;0.10;0.10;;;21.10;1.00;;;;;;5099045;28;20478;-76
2021/06/30 11:42:31;;;;;;;0.20;0.20;;;21.00;1.00;;;;;;5099273;28;20047;-76
2021/06/30 11:44:57;;;;;;;0.10;0.10;;;21.00;1.00;;;;;;5117532;28;20039;-76
2021/06/30 11:47:23;;;;;;;0.30;0.30;;;21.00;1.00;;;;;;5099159;28;20036;-76
2021/06/30 11:49:59;;;;;;;0.10;0.10;;;21.00;1.00;;;;;;5117683;28;20034;-76
2021/06/30 11:52:25;;;;;;;0.70;0.38;;;21.00;1.00;;;;;;5099335;28;20409;-76
2021/06/30 11:54:58;;;;;;;0.20;0.20;;;21.20;1.00;;;;;;5099348;28;20027;-76
2021/06/30 11:57:26;;;;;;;0.15;0.15;;;21.20;1.00;;;;;;5117950;28;20109;-77
2021/06/30 12:00:06;;;;;;;0.10;0.10;;;21.10;1.00;;;;;;5115401;28;20407;-77
2021/06/30 12:02:49;;;;;;;0.20;0.20;;;21.20;1.00;;;;;;5096590;28;20051;-77
2021/06/30 12:05:16;;;;;;;0.10;0.10;;;21.20;1.00;;;;;;5114867;28;20038;-77
2021/06/30 12:07:43;;;;;;;0.10;0.10;;;21.20;1.00;;;;;;5097531;28;20065;-76
2021/06/30 12:10:10;;;;;;;0.20;0.20;;;21.30;1.00;;;;;;5115574;28;20069;-76
2021/06/30 12:12:37;;;;;;;0.10;0.10;;;21.30;1.00;;;;;;5115693;28;20127;-76
2021/06/30 12:15:08;;;;;;;0.20;0.20;;;21.20;1.00;;;;;;5115413;28;20078;-76
2021/06/30 12:17:34;;;;;;;0.10;0.10;;;21.40;1.00;;;;;;5115363;28;20040;-77
2021/06/30 12:20:01;;;;;;;0.22;0.22;;;21.40;1.00;;;;;;5112856;28;20039;-77
2021/06/30 12:22:34;;;;;;;0.20;0.20;;;21.40;1.00;;;;;;5115701;28;20168;-76
2021/06/30 12:25:06;;;;;;;0.82;0.82;;;21.30;1.00;;;;;;5111630;28;20035;-76
2021/06/30 12:27:42;;;;;;;0.10;0.10;;;21.30;1.00;;;;;;5097494;28;20397;-76
2021/06/30 12:30:08;;;;;;;0.20;0.20;;;21.40;1.00;;;;;;5117124;28;20079;-76
2021/06/30 12:32:42;;;;;;;0.35;0.35;;;21.40;1.00;;;;;;5115353;28;20044;-76
2021/06/30 12:35:10;;;;;;;0.20;0.20;;;21.30;1.00;;;;;;5113439;28;20046;-76
2021/06/30 12:37:36;;;;;;;0.20;0.20;;;21.40;1.00;;;;;;5114959;28;20042;-77
2021/06/30 12:40:10;;;;;;;0.10;0.10;;;21.50;1.00;;;;;;5112553;28;20044;-76
2021/06/30 12:42:44;;;;;;;0.10;0.10;;;21.60;1.00;;;;;;5115054;28;20039;-76
2021/06/30 12:45:12;;;;;;;0.20;0.20;;;21.70;1.00;;;;;;5096862;28;20035;-76
2021/06/30 12:47:59;;;;;;;0.17;0.17;;;21.50;1.00;;;;;;5114852;28;20046;-76
2021/06/30 12:50:38;;;;;;;0.20;0.20;;;21.60;1.00;;;;;;5113476;28;20036;-77
2021/06/30 12:53:28;;;;;;;0.28;0.28;;;21.50;1.00;;;;;;5113692;28;20092;-76
2021/06/30 12:56:07;;;;;;;0.10;0.10;;;21.70;1.00;;;;;;5113654;28;20120;-76
2021/06/30 12:58:44;;;;;;;0.10;0.10;;;21.70;1.00;;;;;;5116869;28;20040;-77
2021/06/30 13:01:32;;;;;;;0.10;0.10;;;21.60;1.00;;;;;;5080909;28;20063;-76
2021/06/30 13:04:04;;;;;;;0.20;0.20;;;21.50;1.00;;;;;;5074989;28;20043;-76
2021/06/30 13:06:34;;;;;;;0.10;0.10;;;21.60;1.00;;;;;;5076385;28;20050;-77
2021/06/30 13:09:12;;;;;;;0.10;0.10;;;21.60;1.00;;;;;;5074014;28;20040;-76
2021/06/30 13:11:49;;;;;;;0.20;0.20;;;21.60;1.00;;;;;;5075632;28;20072;-77